createdAt,value
2019-03-26T00:00:26.682Z,1.86
2019-03-26T00:02:57.867Z,1.94
2019-03-26T00:05:29.090Z,1.92
2019-03-26T00:08:00.540Z,2.03
2019-03-26T00:10:31.426Z,2.11
2019-03-26T00:13:02.292Z,2.06
2019-03-26T00:15:35.848Z,2.14
2019-03-26T00:18:07.606Z,2.05
2019-03-26T00:20:38.521Z,1.99
2019-03-26T00:23:09.442Z,2.14
2019-03-26T00:25:40.382Z,2.12
2019-03-26T00:28:11.382Z,2.11
2019-03-26T00:30:42.525Z,2.16
2019-03-26T00:33:15.515Z,1.99
2019-03-26T00:35:46.631Z,2.01
2019-03-26T00:38:17.560Z,2.05
2019-03-26T00:40:48.829Z,1.95
2019-03-26T00:43:20.651Z,1.84
2019-03-26T00:45:51.555Z,1.91
2019-03-26T00:48:23.136Z,1.99
2019-03-26T00:50:54.336Z,1.94
2019-03-26T00:53:25.267Z,1.91
2019-03-26T00:55:56.362Z,1.96
2019-03-26T00:58:27.430Z,1.95
2019-03-26T01:01:01.669Z,2.01
2019-03-26T01:03:33.773Z,2.12
2019-03-26T01:06:05.688Z,1.99
2019-03-26T01:08:36.578Z,2.09
2019-03-26T01:11:08.368Z,2.10
2019-03-26T01:13:39.353Z,2.02
2019-03-26T01:16:10.608Z,1.97
2019-03-26T01:18:41.441Z,2.03
2019-03-26T01:21:12.405Z,2.05
2019-03-26T01:23:44.716Z,2.05
2019-03-26T01:26:15.733Z,1.94
2019-03-26T01:28:50.811Z,2.02
2019-03-26T01:31:21.786Z,2.06
2019-03-26T01:33:52.651Z,2.05
2019-03-26T01:36:23.544Z,2.13
2019-03-26T01:38:54.433Z,2.15
2019-03-26T01:41:25.280Z,2.13
2019-03-26T01:43:56.218Z,2.20
2019-03-26T01:46:27.329Z,2.21
2019-03-26T01:48:58.183Z,2.18
2019-03-26T01:51:29.087Z,2.22
2019-03-26T01:53:59.939Z,2.25
2019-03-26T01:56:30.796Z,2.31
2019-03-26T01:59:01.743Z,2.25
2019-03-26T02:01:32.598Z,2.22
2019-03-26T02:04:03.491Z,2.16
2019-03-26T02:06:34.530Z,2.17
2019-03-26T02:09:06.304Z,2.13
2019-03-26T02:11:37.667Z,2.12
2019-03-26T02:14:08.950Z,2.06
2019-03-26T02:16:40.613Z,2.08
2019-03-26T02:19:13.635Z,2.01
2019-03-26T02:21:44.495Z,2.02
2019-03-26T02:24:15.429Z,1.85
2019-03-26T02:26:46.594Z,1.84
2019-03-26T02:29:17.519Z,1.77
2019-03-26T02:31:48.373Z,1.70
2019-03-26T02:34:19.217Z,1.69
2019-03-26T02:36:50.848Z,1.48
2019-03-26T02:39:21.814Z,1.41
2019-03-26T02:41:52.649Z,1.29
2019-03-26T02:44:25.265Z,1.15
2019-03-26T02:46:56.094Z,0.90
2019-03-26T02:49:26.932Z,0.78
2019-03-26T02:51:58.388Z,0.76
2019-03-26T02:54:29.341Z,0.59
2019-03-26T02:57:24.821Z,0.39
2019-03-26T02:59:55.703Z,0.39
2019-03-26T03:02:26.588Z,0.24
2019-03-26T03:04:57.568Z,0.24
2019-03-26T03:07:32.073Z,0.29
2019-03-26T03:10:02.929Z,0.40
2019-03-26T03:12:33.957Z,0.47
2019-03-26T03:15:05.277Z,0.32
2019-03-26T03:17:37.023Z,0.32
2019-03-26T03:20:11.031Z,0.25
2019-03-26T03:23:00.651Z,0.20
2019-03-26T03:25:31.644Z,0.05
2019-03-26T03:28:02.520Z,0.05
2019-03-26T03:30:33.555Z,-0.15
2019-03-26T03:33:04.752Z,-0.23
2019-03-26T03:35:51.205Z,-0.34
2019-03-26T03:38:08.679Z,-0.33
2019-03-26T03:40:39.746Z,-0.33
2019-03-26T03:43:10.865Z,-0.51
2019-03-26T03:45:42.349Z,-0.51
2019-03-26T03:48:13.697Z,-0.52
2019-03-26T03:50:45.925Z,-0.51
2019-03-26T03:53:19.508Z,-0.73
2019-03-26T03:55:53.110Z,-0.88
2019-03-26T03:58:27.924Z,-0.90
2019-03-26T04:00:58.833Z,-1.02
2019-03-26T04:03:29.733Z,-1.10
2019-03-26T04:06:08.693Z,-1.22
2019-03-26T04:08:33.605Z,-1.15
2019-03-26T04:11:05.627Z,-1.16
2019-03-26T04:13:36.631Z,-1.02
2019-03-26T04:16:07.497Z,-0.94
2019-03-26T04:18:38.810Z,-0.86
2019-03-26T04:21:09.796Z,-0.79
2019-03-26T04:23:41.167Z,-0.63
2019-03-26T04:26:12.104Z,-0.45
2019-03-26T04:28:45.463Z,-0.29
2019-03-26T04:31:16.338Z,-0.30
2019-03-26T04:33:47.630Z,-0.14
2019-03-26T04:36:26.141Z,-0.06
2019-03-26T04:38:54.012Z,0.04
2019-03-26T04:41:24.924Z,0.07
2019-03-26T04:43:55.833Z,0.25
2019-03-26T04:46:26.770Z,0.34
2019-03-26T04:48:58.020Z,0.53
2019-03-26T04:51:29.752Z,0.53
2019-03-26T04:54:00.628Z,0.69
2019-03-26T04:56:51.825Z,0.88
2019-03-26T04:59:22.807Z,0.88
2019-03-26T05:01:53.780Z,0.95
2019-03-26T05:04:24.778Z,1.05
2019-03-26T05:06:56.114Z,1.05
2019-03-26T05:09:27.178Z,1.13
2019-03-26T05:11:58.451Z,1.17
2019-03-26T05:14:30.221Z,1.21
2019-03-26T05:17:01.528Z,1.25
2019-03-26T05:19:32.797Z,1.15
2019-03-26T05:22:03.766Z,1.27
2019-03-26T05:24:34.990Z,1.29
2019-03-26T05:27:05.948Z,1.29
2019-03-26T05:29:36.821Z,1.33
2019-03-26T05:32:09.604Z,1.35
2019-03-26T05:34:40.495Z,1.35
2019-03-26T05:37:11.452Z,1.40
2019-03-26T05:39:42.453Z,1.39
2019-03-26T05:42:17.561Z,1.39
2019-03-26T05:44:55.095Z,1.36
2019-03-26T05:47:26.321Z,1.21
2019-03-26T05:50:01.631Z,1.15
2019-03-26T05:52:42.360Z,1.11
2019-03-26T05:55:18.387Z,1.00
2019-03-26T05:57:56.923Z,0.85
2019-03-26T06:00:27.977Z,0.74
2019-03-26T06:03:06.654Z,0.69
2019-03-26T06:05:39.903Z,0.69
2019-03-26T06:08:16.512Z,0.70
2019-03-26T06:10:47.402Z,0.73
2019-03-26T06:13:18.446Z,1.01
2019-03-26T06:15:49.404Z,1.55
2019-03-26T06:18:21.018Z,2.26
2019-03-26T06:20:55.101Z,2.71
2019-03-26T06:23:29.141Z,2.96
2019-03-26T06:26:04.036Z,2.94
2019-03-26T06:28:35.057Z,2.91
2019-03-26T06:31:05.993Z,3.79
2019-03-26T06:33:36.927Z,3.86
2019-03-26T06:36:07.787Z,3.47
2019-03-26T06:38:40.392Z,3.76
2019-03-26T06:41:11.230Z,3.80
2019-03-26T06:43:42.222Z,3.46
2019-03-26T06:46:13.114Z,3.22
2019-03-26T06:48:44.041Z,2.88
2019-03-26T06:51:15.359Z,2.61
2019-03-26T06:53:46.504Z,2.51
2019-03-26T06:56:17.423Z,2.45
2019-03-26T06:58:50.477Z,2.30
2019-03-26T07:01:21.904Z,2.25
2019-03-26T07:03:53.062Z,2.27
2019-03-26T07:06:24.528Z,2.62
2019-03-26T07:08:55.762Z,2.51
2019-03-26T07:11:26.969Z,2.56
2019-03-26T07:13:57.954Z,2.77
2019-03-26T07:16:29.162Z,2.80
2019-03-26T07:19:00.444Z,2.99
2019-03-26T07:21:50.601Z,3.09
2019-03-26T07:24:21.620Z,2.73
2019-03-26T07:26:55.059Z,2.44
2019-03-26T07:29:25.928Z,2.21
2019-03-26T07:31:57.338Z,2.08
2019-03-26T07:34:28.320Z,2.11
2019-03-26T07:37:01.315Z,2.20
2019-03-26T07:39:35.447Z,2.43
2019-03-26T07:42:06.545Z,2.56
2019-03-26T07:44:37.484Z,2.77
2019-03-26T07:47:26.804Z,3.74
2019-03-26T07:49:57.809Z,4.24
2019-03-26T07:52:28.692Z,4.53
2019-03-26T07:55:07.701Z,4.38
2019-03-26T07:57:39.229Z,4.66
2019-03-26T08:00:12.284Z,4.59
2019-03-26T08:02:43.317Z,4.49
2019-03-26T08:05:14.300Z,4.45
2019-03-26T08:07:57.518Z,4.03
2019-03-26T08:10:18.075Z,3.89
2019-03-26T08:12:50.659Z,3.87
2019-03-26T08:15:22.365Z,3.58
2019-03-26T08:17:57.270Z,3.51
2019-03-26T08:20:29.280Z,3.59
2019-03-26T08:23:02.546Z,3.74
2019-03-26T08:25:36.224Z,3.98
2019-03-26T08:28:07.119Z,4.04
2019-03-26T08:30:38.436Z,4.32
2019-03-26T08:33:09.923Z,6.06
2019-03-26T08:35:40.801Z,7.44
2019-03-26T08:38:13.492Z,8.96
2019-03-26T08:40:46.916Z,10.38
2019-03-26T08:43:18.619Z,10.87
2019-03-26T08:45:51.989Z,12.14
2019-03-26T08:48:23.927Z,12.82
2019-03-26T08:50:55.503Z,14.44
2019-03-26T08:53:26.665Z,13.84
2019-03-26T08:55:57.847Z,12.10
2019-03-26T08:58:29.148Z,11.90
2019-03-26T09:01:03.137Z,13.01
2019-03-26T09:03:34.369Z,11.31
2019-03-26T09:06:05.666Z,9.52
2019-03-26T09:08:37.190Z,8.54
2019-03-26T09:11:08.226Z,7.46
2019-03-26T09:13:39.670Z,6.88
2019-03-26T09:16:12.038Z,6.48
2019-03-26T09:18:44.530Z,6.41
2019-03-26T09:21:16.379Z,6.74
2019-03-26T09:23:48.678Z,8.07
2019-03-26T09:26:20.110Z,9.78
2019-03-26T09:28:51.342Z,10.39
2019-03-26T09:31:24.904Z,10.23
2019-03-26T09:33:58.691Z,9.86
2019-03-26T09:36:31.915Z,9.33
2019-03-26T09:39:03.182Z,8.66
2019-03-26T09:41:35.927Z,8.02
2019-03-26T09:44:07.174Z,8.30
2019-03-26T09:46:45.674Z,8.47
2019-03-26T09:49:22.604Z,8.48
2019-03-26T09:51:53.867Z,7.98
2019-03-26T09:54:25.272Z,8.49
2019-03-26T09:56:59.586Z,8.63
2019-03-26T09:59:33.230Z,8.69
2019-03-26T10:02:06.691Z,8.07
2019-03-26T10:04:38.092Z,7.30
2019-03-26T10:07:20.944Z,7.05
2019-03-26T10:09:44.628Z,6.88
2019-03-26T10:12:18.703Z,6.98
2019-03-26T10:14:51.058Z,7.00
2019-03-26T10:17:22.360Z,6.84
2019-03-26T10:19:53.867Z,6.73
2019-03-26T10:22:25.094Z,7.14
2019-03-26T10:24:58.728Z,10.94
2019-03-26T10:27:30.488Z,12.71
2019-03-26T10:30:01.965Z,14.85
2019-03-26T10:32:33.300Z,15.00
2019-03-26T10:35:05.122Z,14.24
2019-03-26T10:37:36.628Z,12.96
2019-03-26T10:40:08.166Z,11.12
2019-03-26T10:42:39.643Z,9.40
2019-03-26T10:45:12.277Z,8.28
2019-03-26T10:47:43.431Z,7.78
2019-03-26T10:50:14.828Z,7.40
2019-03-26T10:52:47.334Z,7.23
2019-03-26T10:55:18.434Z,7.54
2019-03-26T10:58:07.632Z,7.71
2019-03-26T11:00:39.115Z,7.71
2019-03-26T11:03:10.172Z,8.11
2019-03-26T11:05:41.849Z,8.39
2019-03-26T11:08:14.229Z,9.71
2019-03-26T11:10:45.140Z,9.44
2019-03-26T11:13:34.262Z,9.50
2019-03-26T11:16:07.246Z,10.04
2019-03-26T11:18:42.773Z,11.12
2019-03-26T11:21:14.067Z,10.97
2019-03-26T11:23:45.600Z,10.48
2019-03-26T11:26:19.063Z,11.28
2019-03-26T11:28:50.303Z,11.20
2019-03-26T11:31:30.116Z,12.16
2019-03-26T11:34:01.256Z,11.70
2019-03-26T11:36:34.907Z,12.63
2019-03-26T11:39:16.325Z,12.81
2019-03-26T11:42:12.068Z,11.87
2019-03-26T11:44:51.692Z,10.45
2019-03-26T11:47:31.967Z,9.09
2019-03-26T11:50:09.665Z,8.22
2019-03-26T11:52:48.275Z,7.64
2019-03-26T11:55:24.418Z,7.39
2019-03-26T11:57:56.304Z,7.29
2019-03-26T12:00:35.741Z,9.08
2019-03-26T12:03:14.665Z,11.75
2019-03-26T12:09:45.651Z,16.42
2019-03-26T12:14:50.805Z,17.09
2019-03-26T12:18:02.434Z,18.15
2019-03-26T12:24:18.411Z,17.97
2019-03-26T12:27:36.527Z,17.55
2019-03-26T12:30:37.474Z,18.03
2019-03-26T12:33:55.354Z,17.89
2019-03-26T12:36:44.845Z,15.52
2019-03-26T12:42:47.842Z,13.87
2019-03-26T12:46:19.013Z,15.09
2019-03-26T12:48:31.897Z,13.42
2019-03-26T12:54:01.541Z,14.23
2019-03-26T12:57:03.170Z,14.21
2019-03-26T13:00:19.252Z,13.53
2019-03-26T13:03:03.623Z,11.75
2019-03-26T13:05:48.940Z,9.85
2019-03-26T13:08:28.999Z,9.17
2019-03-26T13:11:08.357Z,8.57
2019-03-26T13:13:42.718Z,8.08
2019-03-26T13:16:17.614Z,7.66
2019-03-26T13:18:49.875Z,7.34
2019-03-26T13:21:21.438Z,7.13
2019-03-26T13:23:56.729Z,7.02
2019-03-26T13:26:29.318Z,7.10
2019-03-26T13:29:02.662Z,7.23
2019-03-26T13:31:40.672Z,9.31
2019-03-26T13:34:38.176Z,12.52
2019-03-26T13:40:27.040Z,14.32
2019-03-26T13:43:03.150Z,11.82
2019-03-26T13:45:37.129Z,10.55
2019-03-26T13:48:10.301Z,9.28
2019-03-26T13:50:48.175Z,8.03
2019-03-26T13:53:24.504Z,7.28
2019-03-26T13:55:55.997Z,7.01
2019-03-26T13:58:34.136Z,6.77
2019-03-26T14:01:11.600Z,6.62
2019-03-26T14:03:44.050Z,6.46
2019-03-26T14:06:15.051Z,6.22
2019-03-26T14:08:46.277Z,6.21
2019-03-26T14:11:32.987Z,5.99
2019-03-26T14:14:07.785Z,6.09
2019-03-26T14:16:56.758Z,6.04
2019-03-26T14:19:27.866Z,5.97
2019-03-26T14:22:01.110Z,6.18
2019-03-26T14:24:50.679Z,6.55
2019-03-26T14:27:34.337Z,7.96
2019-03-26T14:34:10.803Z,11.55
2019-03-26T14:36:45.993Z,11.73
2019-03-26T14:39:21.770Z,11.10
2019-03-26T14:41:59.934Z,10.23
2019-03-26T14:44:33.003Z,9.51
2019-03-26T14:47:16.351Z,8.70
2019-03-26T14:49:50.287Z,7.66
2019-03-26T14:52:22.180Z,6.78
2019-03-26T14:54:53.518Z,6.06
2019-03-26T14:57:29.087Z,5.56
2019-03-26T15:00:09.799Z,5.15
2019-03-26T15:02:58.824Z,5.23
2019-03-26T15:05:34.772Z,5.23
2019-03-26T15:08:07.584Z,5.15
2019-03-26T15:10:39.250Z,5.31
2019-03-26T15:13:12.392Z,5.27
2019-03-26T15:15:44.427Z,5.29
2019-03-26T15:18:15.577Z,5.34
2019-03-26T15:20:48.248Z,5.30
2019-03-26T15:23:19.849Z,5.33
2019-03-26T15:25:53.172Z,5.06
2019-03-26T15:28:27.847Z,5.09
2019-03-26T15:31:01.973Z,4.97
2019-03-26T15:33:37.781Z,4.88
2019-03-26T15:36:12.290Z,4.78
2019-03-26T15:38:47.323Z,4.91
2019-03-26T15:41:25.741Z,4.82
2019-03-26T15:43:57.043Z,4.85
2019-03-26T15:47:00.139Z,4.99
2019-03-26T15:49:39.210Z,4.89
2019-03-26T15:52:11.049Z,4.81
2019-03-26T15:55:00.438Z,4.72
2019-03-26T15:57:37.448Z,4.94
2019-03-26T16:00:13.383Z,5.10
2019-03-26T16:02:47.420Z,5.00
2019-03-26T16:05:21.634Z,4.95
2019-03-26T16:07:53.326Z,5.12
2019-03-26T16:10:25.231Z,5.26
2019-03-26T16:13:26.646Z,5.35
2019-03-26T16:16:03.069Z,5.23
2019-03-26T16:18:37.913Z,5.36
2019-03-26T16:21:19.195Z,5.46
2019-03-26T16:23:56.217Z,5.50
2019-03-26T16:27:04.932Z,5.70
2019-03-26T16:29:43.168Z,5.67
2019-03-26T16:32:34.201Z,5.54
2019-03-26T16:35:25.707Z,5.49
2019-03-26T16:38:18.755Z,5.43
2019-03-26T16:40:51.252Z,5.14
2019-03-26T16:43:22.634Z,4.91
2019-03-26T16:45:53.785Z,4.87
2019-03-26T16:48:25.237Z,4.78
2019-03-26T16:51:00.470Z,4.62
2019-03-26T16:53:32.175Z,4.55
2019-03-26T16:56:07.950Z,4.40
2019-03-26T16:58:39.481Z,4.09
2019-03-26T17:01:11.898Z,3.88
2019-03-26T17:03:43.137Z,3.74
2019-03-26T17:06:14.572Z,3.50
2019-03-26T17:08:45.719Z,3.32
2019-03-26T17:11:17.183Z,3.07
2019-03-26T17:13:51.143Z,2.85
2019-03-26T17:16:22.226Z,2.71
2019-03-26T17:18:54.493Z,2.51
2019-03-26T17:21:27.604Z,2.34
2019-03-26T17:23:58.619Z,2.18
2019-03-26T17:26:29.588Z,1.97
2019-03-26T17:29:03.263Z,1.86
2019-03-26T17:31:34.874Z,1.61
2019-03-26T17:34:06.369Z,1.43
2019-03-26T17:36:51.720Z,1.33
2019-03-26T17:39:13.166Z,1.40
2019-03-26T17:41:44.375Z,1.48
2019-03-26T17:44:28.254Z,1.27
2019-03-26T17:47:18.800Z,1.40
2019-03-26T17:49:50.060Z,1.19
2019-03-26T17:52:21.002Z,1.05
2019-03-26T17:54:52.174Z,0.88
2019-03-26T17:57:29.271Z,0.79
2019-03-26T18:00:00.411Z,0.69
2019-03-26T18:02:31.384Z,0.52
2019-03-26T18:05:03.868Z,0.41
2019-03-26T18:07:45.938Z,0.28
2019-03-26T18:10:19.933Z,0.14
2019-03-26T18:12:52.818Z,0.11
2019-03-26T18:15:24.030Z,-0.07
2019-03-26T18:17:55.411Z,-0.20
2019-03-26T18:20:34.460Z,-0.26
2019-03-26T18:23:08.178Z,-0.33
2019-03-26T18:25:43.176Z,-0.40
2019-03-26T18:28:16.650Z,-0.53
2019-03-26T18:34:12.592Z,-0.72
2019-03-26T18:36:44.284Z,-0.91
2019-03-26T18:39:19.198Z,-0.92
2019-03-26T18:41:51.480Z,-0.98
2019-03-26T18:44:24.902Z,-1.05
2019-03-26T18:46:57.656Z,-1.15
2019-03-26T18:49:28.995Z,-1.15
2019-03-26T18:52:07.771Z,-1.21
2019-03-26T18:54:41.425Z,-1.35
2019-03-26T18:57:15.028Z,-1.43
2019-03-26T18:59:52.546Z,-1.70
2019-03-26T19:02:27.772Z,-1.83
2019-03-26T19:05:02.981Z,-1.68
2019-03-26T19:07:35.435Z,-1.56
2019-03-26T19:10:48.501Z,-1.55
2019-03-26T19:13:22.102Z,-1.58
2019-03-26T19:15:57.736Z,-1.57
2019-03-26T19:18:37.057Z,-1.54
2019-03-26T19:21:20.214Z,-1.73
2019-03-26T19:24:03.996Z,-1.81
2019-03-26T19:26:47.845Z,-1.70
2019-03-26T19:29:37.221Z,-1.79
2019-03-26T19:32:08.468Z,-1.75
2019-03-26T19:34:43.388Z,-1.80
2019-03-26T19:37:16.072Z,-1.78
2019-03-26T19:39:47.451Z,-1.91
2019-03-26T19:42:18.710Z,-1.85
2019-03-26T19:44:56.992Z,-1.85
2019-03-26T19:47:36.401Z,-1.80
2019-03-26T19:50:15.976Z,-1.79
2019-03-26T19:52:49.386Z,-1.88
2019-03-26T19:55:21.625Z,-1.94
2019-03-26T19:57:52.824Z,-1.99
2019-03-26T20:00:26.732Z,-1.93
2019-03-26T20:02:56.888Z,-1.96
2019-03-26T20:05:28.042Z,-1.94
2019-03-26T20:07:59.120Z,-1.90
2019-03-26T20:10:30.347Z,-1.90
2019-03-26T20:13:01.360Z,-1.76
2019-03-26T20:15:32.586Z,-1.80
2019-03-26T20:18:04.039Z,-1.77
2019-03-26T20:20:35.376Z,-1.86
2019-03-26T20:23:07.026Z,-1.85
2019-03-26T20:25:38.672Z,-1.92
2019-03-26T20:28:09.663Z,-1.95
2019-03-26T20:30:41.818Z,-1.97
2019-03-26T20:33:12.774Z,-1.93
2019-03-26T20:35:44.110Z,-2.00
2019-03-26T20:38:15.450Z,-2.02
2019-03-26T20:40:49.964Z,-2.05
2019-03-26T20:43:36.532Z,-1.98
2019-03-26T20:46:01.434Z,-1.97
2019-03-26T20:48:38.257Z,-2.01
2019-03-26T20:51:09.659Z,-2.00
2019-03-26T20:53:43.239Z,-1.99
2019-03-26T20:56:18.847Z,-2.06
2019-03-26T20:58:50.427Z,-2.07
2019-03-26T21:01:21.475Z,-2.09
2019-03-26T21:03:55.685Z,-2.04
2019-03-26T21:06:26.708Z,-2.11
2019-03-26T21:08:57.622Z,-2.19
2019-03-26T21:11:28.651Z,-2.17
2019-03-26T21:13:59.706Z,-2.32
2019-03-26T21:16:30.690Z,-2.40
2019-03-26T21:19:01.814Z,-2.44
2019-03-26T21:21:35.171Z,-2.42
2019-03-26T21:24:08.092Z,-2.48
2019-03-26T21:26:41.824Z,-2.65
2019-03-26T21:29:13.321Z,-2.61
2019-03-26T21:31:44.601Z,-2.74
2019-03-26T21:34:35.154Z,-2.71
2019-03-26T21:37:06.271Z,-2.73
2019-03-26T21:39:37.211Z,-2.66
2019-03-26T21:42:10.270Z,-2.57
2019-03-26T21:44:42.090Z,-2.65
2019-03-26T21:47:15.442Z,-2.53
2019-03-26T21:49:59.963Z,-2.62
2019-03-26T21:52:49.359Z,-2.53
2019-03-26T21:55:20.366Z,-2.50
2019-03-26T21:57:52.201Z,-2.34
2019-03-26T22:00:23.569Z,-2.39
2019-03-26T22:02:54.612Z,-2.31
2019-03-26T22:05:25.599Z,-2.19
2019-03-26T22:07:56.662Z,-2.34
2019-03-26T22:10:27.839Z,-2.44
2019-03-26T22:13:00.943Z,-2.27
2019-03-26T22:15:32.389Z,-2.11
2019-03-26T22:18:06.341Z,-2.09
2019-03-26T22:20:37.473Z,-2.04
2019-03-26T22:23:08.481Z,-1.95
2019-03-26T22:25:39.805Z,-2.08
2019-03-26T22:28:10.745Z,-1.77
2019-03-26T22:30:42.368Z,-1.67
2019-03-26T22:33:13.773Z,-1.69
2019-03-26T22:35:46.412Z,-1.79
2019-03-26T22:38:19.541Z,-1.76
2019-03-26T22:40:57.383Z,-1.76
2019-03-26T22:43:35.641Z,-1.92
2019-03-26T22:46:07.936Z,-1.90
2019-03-26T22:48:44.743Z,-1.77
2019-03-26T22:51:18.317Z,-1.87
2019-03-26T22:53:49.512Z,-1.79
2019-03-26T22:56:20.499Z,-1.66
2019-03-26T22:58:51.644Z,-1.67
2019-03-26T23:01:25.727Z,-1.50
2019-03-26T23:04:09.077Z,-1.46
2019-03-26T23:06:41.196Z,-1.35
2019-03-26T23:09:15.083Z,-1.29
2019-03-26T23:11:50.617Z,-1.19
2019-03-26T23:14:23.891Z,-1.10
2019-03-26T23:23:56.332Z,-0.96
2019-03-26T23:26:27.373Z,-0.91
2019-03-26T23:28:58.403Z,-1.00
2019-03-26T23:31:31.261Z,-0.73
2019-03-26T23:34:02.309Z,-0.73
2019-03-26T23:36:33.255Z,-0.68
2019-03-26T23:39:05.211Z,-0.56
2019-03-26T23:41:39.578Z,-0.46
2019-03-26T23:44:09.396Z,-0.59
2019-03-26T23:46:40.397Z,-0.59
2019-03-26T23:49:17.179Z,-0.37
2019-03-26T23:51:51.134Z,-0.14
2019-03-26T23:54:22.022Z,-0.13
2019-03-26T23:56:52.964Z,-0.04
2019-03-26T23:59:33.676Z,0.12
